Time;durP1;ratioP1;P1;durP2;ratioP2;P2;SDS_P1;SDS_P2;PMS_P1;PMS_P2;Temp;Humidity;BMP_temperature;BMP_pressure;BME280_temperature;BME280_humidity;BME280_pressure;Samples;Min_cycle;Max_cycle;Signal;HPM_P1;HPM_P2
2022/03/15 00:00:32;;;;;;;25.95;22.48;;;;;;;2.52;97.10;102742.25;1044731;28;20682;-74
2022/03/15 00:01:04;;;;;;;24.38;21.55;;;;;;;2.65;97.48;102750.03;1044507;28;20302;-73
2022/03/15 00:01:35;;;;;;;25.50;22.15;;;;;;;2.51;96.78;102751.09;1044770;28;20295;-74
2022/03/15 00:02:07;;;;;;;35.13;23.02;;;;;;;2.63;97.38;102750.16;1044146;28;20295;-73
2022/03/15 00:02:39;;;;;;;25.60;21.65;;;;;;;2.59;97.08;102751.34;1040472;28;20291;-73
2022/03/15 00:03:11;;;;;;;23.83;21.33;;;;;;;2.48;96.92;102752.19;1033895;28;20297;-73
2022/03/15 00:03:43;;;;;;;31.05;22.40;;;;;;;2.57;96.89;102748.00;1036748;28;20312;-73
2022/03/15 00:04:14;;;;;;;30.52;22.33;;;;;;;2.61;96.63;102745.97;1040444;28;20810;-73
2022/03/15 00:04:46;;;;;;;26.75;21.88;;;;;;;2.50;96.81;102749.44;1044479;28;20713;-73
2022/03/15 00:05:18;;;;;;;30.33;22.92;;;;;;;2.41;97.38;102745.69;1044616;28;20295;-73
2022/03/15 00:05:50;;;;;;;25.02;21.45;;;;;;;2.54;97.00;102745.59;1039561;28;20374;-74
2022/03/15 00:06:21;;;;;;;29.10;23.15;;;;;;;2.43;96.92;102750.81;1036437;28;20344;-73
2022/03/15 00:06:53;;;;;;;28.60;23.95;;;;;;;2.43;97.64;102748.19;1036174;28;20306;-73
2022/03/15 00:07:24;;;;;;;35.58;23.67;;;;;;;2.49;97.25;102747.75;1036963;28;20391;-73
2022/03/15 00:07:56;;;;;;;25.70;23.00;;;;;;;2.48;97.62;102746.06;1044597;28;20825;-74
2022/03/15 00:08:29;;;;;;;27.05;22.40;;;;;;;2.55;97.39;102742.03;1044543;28;20506;-73
2022/03/15 00:09:00;;;;;;;35.50;25.60;;;;;;;2.48;97.62;102746.06;1044515;28;20388;-73
2022/03/15 00:09:32;;;;;;;29.95;24.77;;;;;;;2.36;97.27;102747.00;1044657;28;20294;-73
2022/03/15 00:10:04;;;;;;;26.67;23.05;;;;;;;2.56;97.70;102748.13;1044825;28;20299;-74
2022/03/15 00:10:36;;;;;;;31.23;23.42;;;;;;;2.58;98.04;102747.03;1044578;28;20299;-73
2022/03/15 00:11:09;;;;;;;28.63;22.60;;;;;;;2.51;98.10;102740.59;1044204;28;20311;-73
2022/03/15 00:11:40;;;;;;;25.10;22.40;;;;;;;2.59;98.26;102745.25;1044760;28;20299;-73
2022/03/15 00:12:14;;;;;;;28.73;23.38;;;;;;;2.65;97.63;102742.97;1044548;28;20869;-73
2022/03/15 00:12:47;;;;;;;30.85;22.90;;;;;;;2.62;98.06;102742.38;1044535;28;20295;-74
2022/03/15 00:13:20;;;;;;;28.58;25.05;;;;;;;2.62;97.71;102748.47;1044493;28;20638;-74
2022/03/15 00:13:52;;;;;;;28.80;22.80;;;;;;;2.70;97.82;102743.47;1044596;28;20303;-73
2022/03/15 00:14:24;;;;;;;28.23;24.17;;;;;;;2.79;97.90;102742.78;1044808;28;20299;-73
2022/03/15 00:14:56;;;;;;;27.60;24.05;;;;;;;2.76;98.13;102740.38;1044331;28;20809;-73
2022/03/15 00:15:27;;;;;;;28.45;22.95;;;;;;;2.68;97.72;102737.47;1044853;28;20291;-73
2022/03/15 00:16:00;;;;;;;28.25;22.50;;;;;;;2.72;97.40;102743.34;1044647;28;20837;-73
2022/03/15 00:16:34;;;;;;;35.92;24.67;;;;;;;2.52;97.32;102742.25;1044676;28;20577;-74
2022/03/15 00:17:07;;;;;;;29.60;23.48;;;;;;;2.43;97.39;102735.03;1044278;28;20967;-73
2022/03/15 00:17:39;;;;;;;26.27;23.45;;;;;;;2.54;97.90;102739.50;1044500;28;20450;-74
2022/03/15 00:18:11;;;;;;;25.50;21.75;;;;;;;2.53;98.18;102738.66;1044519;28;20298;-73
2022/03/15 00:18:43;;;;;;;27.08;22.33;;;;;;;2.50;98.09;102738.91;1044226;28;20310;-73
2022/03/15 00:19:14;;;;;;;26.83;23.83;;;;;;;2.57;97.94;102740.09;1044295;28;20288;-73
2022/03/15 00:19:46;;;;;;;31.02;23.02;;;;;;;2.48;97.97;102743.44;1044320;28;20302;-73
2022/03/15 00:20:19;;;;;;;27.25;22.73;;;;;;;2.49;97.93;102742.50;1044293;28;20303;-73
2022/03/15 00:20:50;;;;;;;27.27;23.17;;;;;;;2.43;97.90;102737.66;1040620;28;20300;-73
2022/03/15 00:21:22;;;;;;;25.02;22.45;;;;;;;2.51;98.43;102740.59;1044384;28;20315;-73
2022/03/15 00:21:53;;;;;;;24.88;21.50;;;;;;;2.50;98.65;102738.06;1044061;28;20303;-73
2022/03/15 00:22:25;;;;;;;28.60;22.42;;;;;;;2.54;98.11;102742.97;1044325;28;20302;-74
2022/03/15 00:22:58;;;;;;;32.17;22.05;;;;;;;2.43;98.04;102737.66;1044767;28;20310;-74
2022/03/15 00:23:31;;;;;;;30.25;21.70;;;;;;;2.33;98.87;102749.84;1044644;28;20314;-74
2022/03/15 00:24:04;;;;;;;27.73;22.83;;;;;;;2.31;98.45;102744.72;1044292;28;20306;-73
2022/03/15 00:24:35;;;;;;;25.02;22.15;;;;;;;2.34;98.67;102746.28;1043948;28;20311;-74
2022/03/15 00:25:09;;;;;;;24.55;21.95;;;;;;;2.31;99.04;102743.88;1044479;28;20299;-73
2022/03/15 00:25:41;;;;;;;25.92;23.10;;;;;;;2.31;98.63;102749.13;1038667;28;20351;-73
2022/03/15 00:26:12;;;;;;;33.20;23.73;;;;;;;2.30;99.08;102747.47;1040174;28;20355;-73
2022/03/15 00:26:44;;;;;;;26.23;23.48;;;;;;;2.32;98.85;102750.81;1036110;28;20379;-73
2022/03/15 00:27:15;;;;;;;28.60;23.17;;;;;;;2.40;99.35;102746.63;1032401;28;20797;-74
2022/03/15 00:27:50;;;;;;;26.63;23.23;;;;;;;2.57;98.91;102741.91;1031925;28;20309;-73
2022/03/15 00:28:22;;;;;;;31.23;23.55;;;;;;;2.48;98.81;102740.81;1032432;28;20669;-73
2022/03/15 00:28:54;;;;;;;27.42;22.48;;;;;;;2.47;98.83;102737.34;1032813;28;20297;-73
2022/03/15 00:29:25;;;;;;;28.65;24.35;;;;;;;2.47;98.95;102741.78;1037847;28;20304;-74
2022/03/15 00:29:59;;;;;;;25.83;23.08;;;;;;;2.42;99.10;102744.72;1040016;28;20787;-74
2022/03/15 00:30:34;;;;;;;29.92;23.98;;;;;;;2.44;99.62;102739.34;1041285;28;20307;-73
2022/03/15 00:31:05;;;;;;;30.05;24.60;;;;;;;2.47;99.40;102739.16;1043620;28;20295;-73
2022/03/15 00:31:39;;;;;;;30.70;24.92;;;;;;;2.50;99.72;102738.06;1044569;28;20719;-73
2022/03/15 00:32:16;;;;;;;29.65;23.75;;;;;;;2.46;99.24;102740.06;1044272;28;20382;-73
2022/03/15 00:32:49;;;;;;;29.95;23.20;;;;;;;2.63;99.68;102744.06;1044031;28;20299;-74
2022/03/15 00:33:20;;;;;;;28.73;22.98;;;;;;;2.65;100.00;102737.72;1035842;28;20313;-73
2022/03/15 00:33:52;;;;;;;27.67;24.38;;;;;;;2.65;99.80;102742.97;1032228;28;20367;-74
2022/03/15 00:34:24;;;;;;;26.95;23.58;;;;;;;2.71;100.00;102742.50;1032388;28;20689;-73
2022/03/15 00:34:56;;;;;;;27.75;24.52;;;;;;;2.83;99.80;102737.25;1032406;28;20309;-73
2022/03/15 00:35:28;;;;;;;28.27;24.80;;;;;;;2.68;99.94;102737.47;1032219;28;20297;-73
2022/03/15 00:36:00;;;;;;;34.95;25.83;;;;;;;2.71;99.76;102739.88;1028505;28;20346;-74
2022/03/15 00:36:35;;;;;;;35.95;24.83;;;;;;;2.68;99.54;102740.13;1028476;28;20357;-73
2022/03/15 00:37:06;;;;;;;30.05;24.60;;;;;;;2.61;99.79;102733.66;1037885;28;20308;-73
2022/03/15 00:37:43;;;;;;;30.08;24.58;;;;;;;2.59;99.85;102732.94;1039849;28;20312;-73
2022/03/15 00:38:15;;;;;;;30.05;25.58;;;;;;;2.71;99.59;102728.50;1039514;28;20307;-73
2022/03/15 00:38:48;;;;;;;32.42;26.27;;;;;;;2.73;100.00;102724.81;1042401;28;20380;-73
2022/03/15 00:39:20;;;;;;;32.75;27.45;;;;;;;2.86;99.99;102731.75;1040541;28;20295;-74
2022/03/15 00:39:52;;;;;;;29.77;25.85;;;;;;;2.82;99.53;102732.97;1044041;28;20295;-73
2022/03/15 00:40:25;;;;;;;35.63;26.50;;;;;;;2.95;99.73;102728.41;1044356;28;20350;-73
2022/03/15 00:40:56;;;;;;;34.08;27.25;;;;;;;2.86;99.57;102735.22;1043985;28;20311;-73
2022/03/15 00:41:28;;;;;;;29.55;26.48;;;;;;;2.85;100.00;102728.28;1044006;28;20646;-73
2022/03/15 00:42:00;;;;;;;27.92;24.33;;;;;;;2.93;99.49;102725.88;1040997;28;20300;-74
2022/03/15 00:42:33;;;;;;;29.90;24.85;;;;;;;3.03;99.90;102726.03;1044341;28;20816;-73
2022/03/15 00:43:07;;;;;;;30.67;25.75;;;;;;;3.11;99.74;102734.16;1039953;28;20803;-73
2022/03/15 00:43:39;;;;;;;32.70;24.40;;;;;;;3.22;99.32;102726.22;1036877;28;20371;-73
2022/03/15 00:44:11;;;;;;;36.13;26.77;;;;;;;3.15;99.57;102719.78;1032159;28;20658;-73
2022/03/15 00:44:43;;;;;;;32.30;25.83;;;;;;;3.09;99.43;102728.19;1023653;28;20366;-73
2022/03/15 00:45:15;;;;;;;32.60;24.65;;;;;;;3.20;99.22;102722.88;1031275;28;20309;-73
2022/03/15 00:45:50;;;;;;;31.90;24.92;;;;;;;3.28;98.89;102724.91;1037959;28;20332;-73
2022/03/15 00:46:21;;;;;;;33.97;26.42;;;;;;;3.16;98.64;102718.81;1046488;28;20295;-73
2022/03/15 00:46:53;;;;;;;35.13;25.60;;;;;;;3.23;99.01;102720.00;1050332;28;20338;-73
2022/03/15 00:47:25;;;;;;;29.60;23.98;;;;;;;3.12;98.54;102714.75;1044419;28;20306;-74
2022/03/15 00:47:58;;;;;;;32.30;24.50;;;;;;;3.03;98.36;102720.75;1044430;28;20822;-73
2022/03/15 00:48:29;;;;;;;31.25;25.20;;;;;;;2.98;98.70;102715.84;1044098;28;20326;-73
2022/03/15 00:49:02;;;;;;;39.85;25.70;;;;;;;2.96;98.59;102709.84;1044180;28;20298;-73
2022/03/15 00:49:35;;;;;;;28.50;24.55;;;;;;;2.90;98.77;102712.13;1041114;28;20296;-73
2022/03/15 00:50:08;;;;;;;29.50;25.15;;;;;;;2.78;98.77;102721.84;1035999;28;20329;-74
2022/03/15 00:50:41;;;;;;;31.38;26.15;;;;;;;2.73;99.06;102716.06;1031970;28;20305;-73
2022/03/15 00:51:14;;;;;;;29.00;25.13;;;;;;;2.71;98.66;102716.19;1032555;28;20301;-74
2022/03/15 00:51:46;;;;;;;33.38;24.85;;;;;;;2.69;99.20;102718.09;1034135;28;20300;-74
2022/03/15 00:52:17;;;;;;;28.42;22.63;;;;;;;2.61;98.41;102714.41;1039324;28;20359;-74
2022/03/15 00:52:50;;;;;;;31.13;24.60;;;;;;;2.63;98.67;102718.59;1039923;28;20311;-73
2022/03/15 00:53:22;;;;;;;29.35;22.65;;;;;;;2.76;98.70;102715.88;1036750;28;20292;-73
2022/03/15 00:53:54;;;;;;;26.73;23.60;;;;;;;2.76;98.96;102714.06;1040986;28;20296;-74
2022/03/15 00:54:26;;;;;;;28.63;22.88;;;;;;;2.75;98.72;102717.66;1043952;28;20299;-73
2022/03/15 00:54:58;;;;;;;28.02;23.90;;;;;;;2.80;98.75;102714.66;1040792;28;20823;-74
2022/03/15 00:55:32;;;;;;;26.30;23.42;;;;;;;2.81;99.03;102716.34;1040014;28;20829;-73
2022/03/15 00:56:04;;;;;;;28.98;23.90;;;;;;;2.86;98.43;102718.59;1039879;28;20331;-73
2022/03/15 00:56:36;;;;;;;28.70;22.98;;;;;;;2.90;98.83;102720.03;1040029;28;20304;-73
2022/03/15 00:57:10;;;;;;;31.23;25.38;;;;;;;2.95;98.58;102723.13;1040643;28;20312;-73
2022/03/15 00:57:42;;;;;;;28.90;24.67;;;;;;;2.91;98.88;102717.28;1035879;28;20297;-73
2022/03/15 00:58:13;;;;;;;29.33;23.52;;;;;;;2.81;98.49;102716.34;1032506;28;20813;-74
2022/03/15 00:58:45;;;;;;;27.23;23.92;;;;;;;2.75;98.51;102727.34;1035936;28;20316;-73
2022/03/15 00:59:19;;;;;;;33.47;25.48;;;;;;;2.76;98.14;102724.59;1036427;28;20311;-74
2022/03/15 00:59:51;;;;;;;39.60;25.20;;;;;;;2.65;98.32;102727.19;1037069;28;20308;-73
2022/03/15 01:00:23;;;;;;;31.55;23.58;;;;;;;2.76;98.58;102724.59;1035731;28;20311;-73
2022/03/15 01:00:55;;;;;;;28.05;23.55;;;;;;;2.85;98.32;102722.19;1036745;28;20336;-73
2022/03/15 01:01:27;;;;;;;29.73;25.13;;;;;;;2.88;98.12;102714.06;1040403;28;20815;-73
2022/03/15 01:01:59;;;;;;;28.83;25.00;;;;;;;2.87;97.92;102717.66;1040705;28;20303;-74
2022/03/15 01:02:30;;;;;;;27.98;24.83;;;;;;;2.86;98.03;102713.34;1044007;28;20381;-73
2022/03/15 01:03:04;;;;;;;31.60;24.02;;;;;;;2.87;98.33;102715.84;1040007;28;20841;-74
2022/03/15 01:03:35;;;;;;;32.38;25.40;;;;;;;2.94;98.35;102713.56;1040829;28;20307;-74
2022/03/15 01:04:07;;;;;;;31.40;25.77;;;;;;;2.92;98.42;102707.59;1039897;28;20393;-73
2022/03/15 01:04:39;;;;;;;31.48;25.70;;;;;;;2.92;97.84;102707.59;1040629;28;20296;-73
2022/03/15 01:05:11;;;;;;;30.67;25.58;;;;;;;2.96;98.32;102714.28;1040054;28;20355;-73
2022/03/15 01:05:43;;;;;;;33.95;24.83;;;;;;;2.75;98.44;102717.66;1028342;28;20789;-74
2022/03/15 01:06:17;;;;;;;31.67;24.05;;;;;;;2.84;98.20;102715.25;1031632;28;20309;-74
2022/03/15 01:06:49;;;;;;;32.80;25.75;;;;;;;2.86;97.83;102714.19;1032695;28;20301;-73
2022/03/15 01:07:20;;;;;;;35.38;27.02;;;;;;;2.84;97.97;102716.09;1038010;28;20724;-73
2022/03/15 01:07:52;;;;;;;37.72;27.73;;;;;;;2.70;97.80;102719.78;1044168;28;20318;-73
2022/03/15 01:08:24;;;;;;;31.35;26.25;;;;;;;2.68;98.29;102716.44;1044064;28;21087;-73
2022/03/15 01:08:55;;;;;;;32.33;26.67;;;;;;;2.62;97.88;102714.28;1043575;28;20710;-73
2022/03/15 01:09:27;;;;;;;33.22;27.42;;;;;;;2.58;97.82;102720.75;1039633;28;20780;-74
2022/03/15 01:09:59;;;;;;;29.77;26.23;;;;;;;2.47;98.55;102716.31;1039463;28;20719;-73
2022/03/15 01:10:31;;;;;;;33.80;27.23;;;;;;;2.56;98.50;102717.38;1035806;28;20300;-74
2022/03/15 01:11:06;;;;;;;30.13;25.55;;;;;;;2.59;98.16;102717.16;1032549;28;20297;-73
2022/03/15 01:11:37;;;;;;;32.38;25.20;;;;;;;2.44;98.32;102713.03;1031521;28;20308;-73
2022/03/15 01:12:09;;;;;;;31.73;25.80;;;;;;;2.45;98.33;102725.25;1029389;28;20298;-73
2022/03/15 01:12:41;;;;;;;30.75;26.13;;;;;;;2.54;98.34;102711.41;1035948;28;20292;-74
2022/03/15 01:13:14;;;;;;;28.92;25.83;;;;;;;2.61;98.59;102709.97;1039811;28;20292;-73
2022/03/15 01:13:45;;;;;;;35.33;26.63;;;;;;;2.58;98.68;102712.84;1040261;28;20807;-73
2022/03/15 01:14:17;;;;;;;31.17;26.38;;;;;;;2.47;98.57;102712.84;1044234;28;20298;-73
2022/03/15 01:14:49;;;;;;;35.60;26.67;;;;;;;2.48;98.67;102717.97;1043915;28;20302;-73
2022/03/15 01:15:24;;;;;;;28.55;25.55;;;;;;;2.44;98.42;102713.03;1044036;28;20303;-73
2022/03/15 01:15:56;;;;;;;32.08;27.02;;;;;;;2.35;98.50;102708.50;1044099;28;20373;-73
2022/03/15 01:16:29;;;;;;;34.03;26.80;;;;;;;2.41;98.59;102715.91;1044258;28;20671;-73
2022/03/15 01:17:02;;;;;;;30.65;26.88;;;;;;;2.47;98.68;102713.69;1040061;28;20300;-74
2022/03/15 01:17:34;;;;;;;30.05;25.20;;;;;;;2.52;99.14;102715.94;1039756;28;20347;-73
2022/03/15 01:18:06;;;;;;;35.40;27.23;;;;;;;2.47;98.64;102715.47;1040013;28;20312;-74
2022/03/15 01:18:38;;;;;;;34.70;26.67;;;;;;;2.38;99.18;102718.78;1032302;28;20301;-74
2022/03/15 01:19:10;;;;;;;34.92;26.20;;;;;;;2.43;99.13;102716.63;1032405;28;20309;-74
2022/03/15 01:19:42;;;;;;;37.72;27.25;;;;;;;2.43;98.79;102711.38;1035555;28;20819;-73
2022/03/15 01:20:14;;;;;;;33.97;26.25;;;;;;;2.35;99.04;102711.13;1036824;28;20293;-74
2022/03/15 01:20:46;;;;;;;30.42;26.23;;;;;;;2.30;99.39;102715.91;1040605;28;20315;-73
2022/03/15 01:21:19;;;;;;;28.70;25.60;;;;;;;2.20;99.29;102715.78;1044191;28;20659;-73
2022/03/15 01:21:51;;;;;;;27.70;24.75;;;;;;;2.28;99.46;102717.81;1044533;28;20654;-73
2022/03/15 01:22:24;;;;;;;35.00;25.77;;;;;;;2.27;99.29;102713.50;1044139;28;20302;-73
2022/03/15 01:22:58;;;;;;;29.30;26.15;;;;;;;2.23;99.72;102714.69;1043979;28;20368;-73
2022/03/15 01:23:30;;;;;;;33.03;26.98;;;;;;;2.23;99.79;102705.03;1043353;28;20311;-73
2022/03/15 01:24:02;;;;;;;32.33;26.45;;;;;;;2.31;100.00;102705.28;1036853;28;20784;-73
2022/03/15 01:24:34;;;;;;;30.40;24.08;;;;;;;2.32;99.86;102711.38;1039957;28;20910;-73
2022/03/15 01:25:06;;;;;;;36.92;27.10;;;;;;;2.39;100.00;102699.41;1035765;28;20289;-73
2022/03/15 01:25:40;;;;;;;28.17;25.33;;;;;;;2.46;100.00;102708.50;1033101;28;20298;-73
2022/03/15 01:26:14;;;;;;;33.50;27.77;;;;;;;2.32;99.95;102708.72;1035590;28;20296;-74
2022/03/15 01:26:46;;;;;;;33.58;28.15;;;;;;;2.42;99.73;102709.69;1029085;28;20790;-73
2022/03/15 01:27:20;;;;;;;33.50;26.80;;;;;;;2.52;100.00;102712.50;1028342;28;20310;-74
2022/03/15 01:27:52;;;;;;;34.22;26.73;;;;;;;2.56;100.00;102712.13;1031755;28;20297;-73
2022/03/15 01:28:25;;;;;;;35.17;26.48;;;;;;;2.58;100.00;102712.84;1034839;28;20302;-73
2022/03/15 01:28:56;;;;;;;33.00;27.15;;;;;;;2.50;100.00;102709.13;1044138;28;20349;-73
2022/03/15 01:29:28;;;;;;;35.42;27.73;;;;;;;2.47;99.65;102707.59;1044196;28;20291;-74
2022/03/15 01:30:05;;;;;;;36.35;26.98;;;;;;;2.34;99.89;102702.41;1044194;28;20362;-74
2022/03/15 01:30:37;;;;;;;34.55;26.92;;;;;;;2.34;99.84;102712.91;1044111;28;20418;-73
2022/03/15 01:31:09;;;;;;;31.55;25.33;;;;;;;2.48;100.00;102701.38;1039806;28;20399;-73
2022/03/15 01:31:41;;;;;;;32.72;27.10;;;;;;;2.54;100.00;102707.94;1035749;28;20312;-73
2022/03/15 01:32:12;;;;;;;30.42;23.92;;;;;;;2.49;99.76;102700.41;1032066;28;20907;-73
2022/03/15 01:32:44;;;;;;;30.75;26.95;;;;;;;2.45;99.80;102701.56;1032423;28;20404;-73
2022/03/15 01:33:21;;;;;;;32.08;26.38;;;;;;;2.46;100.00;102701.44;1032819;28;20436;-74
2022/03/15 01:33:52;;;;;;;30.60;25.50;;;;;;;2.50;100.00;102702.09;1028305;28;20306;-73
2022/03/15 01:34:24;;;;;;;31.05;25.83;;;;;;;2.60;100.00;102696.94;1032065;28;20302;-73
2022/03/15 01:35:00;;;;;;;29.95;24.77;;;;;;;2.68;99.83;102694.53;1035314;28;20324;-73
2022/03/15 01:35:33;;;;;;;29.58;24.75;;;;;;;2.67;100.00;102693.72;1034461;28;20313;-73
2022/03/15 01:36:05;;;;;;;27.50;24.67;;;;;;;2.57;99.74;102697.19;1039723;28;20303;-73
2022/03/15 01:36:37;;;;;;;28.60;23.65;;;;;;;2.68;100.00;102695.38;1032233;28;20839;-73
2022/03/15 01:37:10;;;;;;;27.63;24.67;;;;;;;2.64;99.99;102698.38;1036463;28;20296;-74
2022/03/15 01:37:41;;;;;;;29.27;25.40;;;;;;;2.75;100.00;102693.13;1039928;28;20284;-73
2022/03/15 01:38:13;;;;;;;26.88;23.30;;;;;;;2.59;99.96;102696.09;1036983;28;20301;-73
2022/03/15 01:38:45;;;;;;;27.85;24.20;;;;;;;2.54;99.62;102693.00;1043832;28;20641;-73
2022/03/15 01:39:17;;;;;;;27.52;24.67;;;;;;;2.47;99.65;102692.63;1040059;28;20787;-73
2022/03/15 01:39:49;;;;;;;29.55;24.48;;;;;;;2.51;99.96;102687.13;1040071;28;20303;-73
2022/03/15 01:40:21;;;;;;;31.58;24.00;;;;;;;2.56;99.67;102700.78;1039815;28;20296;-73
2022/03/15 01:40:53;;;;;;;31.15;25.38;;;;;;;2.65;100.00;102690.38;1036398;28;20351;-74
2022/03/15 01:41:24;;;;;;;26.98;24.13;;;;;;;2.70;100.00;102690.84;1035393;28;20872;-73
2022/03/15 01:42:00;;;;;;;26.20;23.38;;;;;;;2.72;99.57;102690.72;1037030;28;20363;-74
2022/03/15 01:42:35;;;;;;;26.92;23.40;;;;;;;2.64;99.54;102680.78;1032962;28;20302;-73
2022/03/15 01:43:06;;;;;;;29.70;22.75;;;;;;;2.61;99.91;102694.19;1037332;28;20672;-74
2022/03/15 01:43:40;;;;;;;29.42;23.92;;;;;;;2.59;99.14;102682.94;1035661;28;20300;-73
2022/03/15 01:44:20;;;;;;;28.70;24.20;;;;;;;2.54;99.28;102687.75;1037503;28;20307;-73
2022/03/15 01:44:52;;;;;;;28.75;24.23;;;;;;;2.58;99.87;102689.16;1035565;28;20296;-73
2022/03/15 01:45:34;;;;;;;27.48;24.48;;;;;;;2.60;100.00;102689.88;1033799;28;20494;-78
2022/03/15 01:46:08;;;;;;;31.98;23.77;;;;;;;2.60;99.91;102692.50;1035369;28;20308;-78
2022/03/15 01:46:40;;;;;;;27.02;23.83;;;;;;;2.69;100.00;102688.31;1040178;28;20303;-78
2022/03/15 01:47:13;;;;;;;28.65;25.52;;;;;;;2.65;99.75;102685.09;1042314;28;20299;-78
2022/03/15 01:47:44;;;;;;;30.80;25.35;;;;;;;2.65;100.00;102679.84;1035746;28;20739;-79
2022/03/15 01:48:16;;;;;;;35.47;27.27;;;;;;;2.63;100.00;102679.13;1031713;28;20301;-78
2022/03/15 01:48:50;;;;;;;34.50;27.25;;;;;;;2.66;99.83;102678.88;1032230;28;20700;-78
2022/03/15 01:49:21;;;;;;;32.47;25.70;;;;;;;2.68;99.90;102679.59;1036631;28;20316;-78
2022/03/15 01:49:53;;;;;;;29.85;26.63;;;;;;;2.71;99.85;102674.09;1040860;28;20320;-79
2022/03/15 01:50:25;;;;;;;26.52;23.50;;;;;;;2.72;99.97;102680.19;1040037;28;20310;-78
2022/03/15 01:50:56;;;;;;;28.30;25.40;;;;;;;2.63;99.59;102676.50;1044046;28;20307;-78
2022/03/15 01:51:31;;;;;;;32.10;25.80;;;;;;;2.51;99.55;102682.72;1035574;28;20300;-79
2022/03/15 01:52:05;;;;;;;30.40;26.00;;;;;;;2.55;99.81;102681.53;1032886;28;20297;-79
2022/03/15 01:52:37;;;;;;;28.30;25.30;;;;;;;2.56;99.21;102674.47;1035663;28;20305;-79
2022/03/15 01:53:08;;;;;;;29.23;26.13;;;;;;;2.61;99.29;102675.78;1034083;28;20305;-78
2022/03/15 01:53:44;;;;;;;27.65;23.83;;;;;;;2.68;99.74;102676.97;1040950;28;20807;-78
2022/03/15 01:54:17;;;;;;;28.05;24.73;;;;;;;2.71;99.93;102678.53;1033230;28;20308;-78
2022/03/15 01:54:50;;;;;;;30.60;25.92;;;;;;;2.65;99.86;102674.56;1032768;28;20818;-79
2022/03/15 01:55:22;;;;;;;32.38;24.75;;;;;;;2.55;99.68;102678.88;1035324;28;20839;-78
2022/03/15 01:55:59;;;;;;;29.48;24.40;;;;;;;2.51;99.83;102666.94;1030772;28;20309;-78
2022/03/15 01:56:32;;;;;;;33.30;24.48;;;;;;;2.51;99.89;102664.31;1031607;28;20308;-78
2022/03/15 01:57:07;;;;;;;32.88;22.95;;;;;;;2.37;99.95;102659.25;1031615;28;20305;-78
2022/03/15 01:57:39;;;;;;;28.30;25.02;;;;;;;2.46;99.98;102669.06;1029463;28;20825;-78
2022/03/15 01:58:11;;;;;;;33.67;27.05;;;;;;;2.34;100.00;102672.63;1033514;28;20666;-78
2022/03/15 01:58:43;;;;;;;26.73;23.65;;;;;;;2.47;100.00;102660.25;1035661;28;20312;-78
2022/03/15 01:59:34;;;;;;;29.52;22.67;;;;;;;2.55;99.77;102668.38;1035777;28;20356;-78
2022/03/15 02:00:07;;;;;;;28.98;25.55;;;;;;;2.53;100.00;102670.28;1034672;28;20751;-78
2022/03/15 02:00:39;;;;;;;30.98;24.30;;;;;;;2.64;100.00;102665.00;1034512;28;20672;-78
2022/03/15 02:01:10;;;;;;;29.73;25.25;;;;;;;2.68;100.00;102668.25;1031564;28;20306;-78
2022/03/15 02:01:43;;;;;;;28.33;24.20;;;;;;;2.65;100.00;102666.69;1032802;28;20305;-78
2022/03/15 02:02:15;;;;;;;31.38;24.48;;;;;;;2.52;100.00;102662.50;1040326;28;20306;-79
2022/03/15 02:02:48;;;;;;;32.00;23.48;;;;;;;2.68;100.00;102668.25;1044174;28;20344;-78
2022/03/15 02:03:20;;;;;;;28.08;24.95;;;;;;;2.62;100.00;102669.56;1044337;28;20306;-79
2022/03/15 02:03:52;;;;;;;33.08;24.13;;;;;;;2.59;100.00;102664.53;1043707;28;20303;-79
2022/03/15 02:04:24;;;;;;;27.48;24.70;;;;;;;2.58;99.94;102662.88;1043851;28;20299;-77
2022/03/15 02:04:56;;;;;;;32.45;24.65;;;;;;;2.56;100.00;102669.22;1039783;28;20676;-78
2022/03/15 02:05:27;;;;;;;30.83;24.58;;;;;;;2.48;100.00;102672.44;1036314;28;20312;-79
2022/03/15 02:06:01;;;;;;;30.13;25.67;;;;;;;2.47;100.00;102665.50;1035468;28;20305;-78
2022/03/15 02:06:41;;;;;;;30.55;25.27;;;;;;;2.42;100.00;102663.19;1032387;28;20327;-78
2022/03/15 02:07:14;;;;;;;27.88;23.48;;;;;;;2.47;100.00;102654.97;1037468;28;20315;-78
2022/03/15 02:07:46;;;;;;;31.88;24.25;;;;;;;2.51;100.00;102663.47;1041981;28;20368;-79
2022/03/15 02:08:18;;;;;;;27.42;22.45;;;;;;;2.59;100.00;102663.69;1039024;28;20351;-78
2022/03/15 02:08:49;;;;;;;29.73;26.70;;;;;;;2.50;100.00;102665.25;1039613;28;20292;-78
2022/03/15 02:09:21;;;;;;;29.98;25.92;;;;;;;2.48;100.00;102661.91;1039874;28;20636;-78
2022/03/15 02:09:53;;;;;;;34.72;25.15;;;;;;;2.59;100.00;102664.53;1040101;28;20780;-79
2022/03/15 02:10:25;;;;;;;33.50;26.42;;;;;;;2.63;100.00;102660.72;1043768;28;20307;-78
2022/03/15 02:10:56;;;;;;;27.35;24.02;;;;;;;2.54;100.00;102664.06;1044307;28;20349;-78
2022/03/15 02:11:28;;;;;;;25.80;23.20;;;;;;;2.61;100.00;102662.63;1041669;28;20748;-78
2022/03/15 02:12:00;;;;;;;25.63;21.85;;;;;;;2.62;99.94;102653.78;1043927;28;20298;-79
2022/03/15 02:12:36;;;;;;;27.35;22.15;;;;;;;2.66;99.79;102660.47;1044127;28;20299;-78
2022/03/15 02:13:08;;;;;;;25.40;21.85;;;;;;;2.75;100.00;102665.03;1039810;28;20783;-79
2022/03/15 02:13:40;;;;;;;29.98;22.20;;;;;;;2.69;99.97;102660.22;1039276;28;20379;-78
2022/03/15 02:14:12;;;;;;;25.95;23.25;;;;;;;2.57;99.93;102660.34;1040922;28;20296;-78
2022/03/15 02:14:44;;;;;;;32.40;23.65;;;;;;;2.53;99.88;102657.13;1044068;28;20307;-78
2022/03/15 02:15:15;;;;;;;30.70;22.92;;;;;;;2.63;100.00;102660.72;1044219;28;20299;-79
2022/03/15 02:15:49;;;;;;;25.92;22.63;;;;;;;2.66;99.71;102654.38;1043953;28;20365;-78
2022/03/15 02:16:20;;;;;;;25.23;22.42;;;;;;;2.69;99.71;102662.03;1044002;28;20295;-78
2022/03/15 02:16:52;;;;;;;28.25;22.02;;;;;;;2.73;100.00;102661.66;1044229;28;20350;-78
2022/03/15 02:17:24;;;;;;;25.15;22.15;;;;;;;2.78;100.00;102658.69;1043870;28;20821;-78
2022/03/15 02:17:56;;;;;;;25.98;22.15;;;;;;;2.78;99.93;102653.41;1039664;28;20367;-78
2022/03/15 02:18:28;;;;;;;27.20;22.25;;;;;;;2.84;99.67;102660.00;1039672;28;20326;-78
2022/03/15 02:19:00;;;;;;;27.65;22.85;;;;;;;2.87;100.00;102663.22;1040254;28;20308;-78
2022/03/15 02:19:32;;;;;;;26.40;22.02;;;;;;;2.87;99.72;102657.13;1043898;28;20299;-78
2022/03/15 02:20:08;;;;;;;25.92;21.95;;;;;;;2.87;100.00;102662.38;1043893;28;20318;-78
2022/03/15 02:20:40;;;;;;;25.35;22.17;;;;;;;2.87;99.62;102665.00;1044086;28;20298;-78
2022/03/15 02:21:11;;;;;;;25.23;21.83;;;;;;;2.85;99.97;102666.94;1036671;28;20339;-79
2022/03/15 02:21:43;;;;;;;24.73;22.08;;;;;;;2.87;99.75;102659.75;1039765;28;20296;-78
2022/03/15 02:22:14;;;;;;;23.92;21.17;;;;;;;2.91;99.59;102669.06;1040204;28;20355;-78
2022/03/15 02:22:46;;;;;;;26.45;23.45;;;;;;;2.91;99.24;102669.06;1037382;28;20292;-78
2022/03/15 02:23:18;;;;;;;26.65;21.70;;;;;;;2.83;99.51;102656.53;1042788;28;20306;-78
2022/03/15 02:23:49;;;;;;;21.90;19.75;;;;;;;2.91;99.12;102664.63;1043715;28;20299;-78
2022/03/15 02:24:21;;;;;;;22.45;19.95;;;;;;;2.91;98.97;102658.53;1039782;28;20624;-78
2022/03/15 02:24:52;;;;;;;26.65;21.00;;;;;;;2.98;99.01;102662.34;1043238;28;20304;-78
2022/03/15 02:25:24;;;;;;;31.70;22.10;;;;;;;2.95;99.24;102659.97;1043833;28;20315;-78
2022/03/15 02:25:56;;;;;;;24.35;21.70;;;;;;;2.97;99.42;102658.03;1043868;28;20341;-78
2022/03/15 02:26:27;;;;;;;24.02;21.45;;;;;;;2.95;99.14;102660.81;1043901;28;20300;-78
2022/03/15 02:26:59;;;;;;;24.45;20.77;;;;;;;2.91;99.04;102659.38;1044131;28;20314;-77
2022/03/15 02:27:31;;;;;;;21.88;19.67;;;;;;;2.90;99.02;102660.34;1044190;28;20291;-78
2022/03/15 02:28:02;;;;;;;22.67;20.25;;;;;;;2.88;98.90;102653.53;1043982;28;20632;-79
2022/03/15 02:28:34;;;;;;;22.48;19.85;;;;;;;2.82;98.71;102659.28;1044094;28;20318;-79
2022/03/15 02:29:06;;;;;;;23.63;21.13;;;;;;;2.78;98.38;102656.88;1043972;28;20320;-78
2022/03/15 02:29:39;;;;;;;22.42;20.05;;;;;;;2.72;98.36;102659.97;1043858;28;20342;-78